Terminal Aerodrome Forecast
Issued by NWS Denver/Boulder, CO

Home | Current Version | Previous Version | Text Only | Print | Product List | Glossary On
Versions: 1 2 3 4 5 6 7 8 9 10 11 12 13 14 15 16 17 18 19 20 21 22 23 24 25 26 27 28 29 30 31 32 33 34 35 36 37 38 39 40 41 42
000
FTUS45 KBOU 251130
TAFDEN
TAF
KDEN 251130Z 2512/2618 22010KT P6SM SCT150 BKN240
     FM251500 25008KT P6SM BKN140 OVC220
     FM252100 29015KT P6SM VCTS SCT090CB BKN120
      TEMPO 2521/2601 VRB20G35KT -TSRA BKN080CB
     FM260300 30009KT P6SM VCSH FEW090 BKN150
     FM260700 35012KT P6SM SCT080 BKN120
     FM261300 36009KT P6SM BKN030 BKN090=

USA.gov is the U.S. government's official web portal to all federal, state and local government web resources and services.